sensor_id;sensor_type;location;lat;lon;timestamp;P1;durP1;ratioP1;P2;durP2;ratioP2
77152;SDS011;66124;51.146;17.072;2023-05-13T00:00:35;5.20;;;3.20;;
77152;SDS011;66124;51.146;17.072;2023-05-13T00:03:11;6.80;;;3.00;;
77152;SDS011;66124;51.146;17.072;2023-05-13T00:05:40;6.40;;;3.20;;
77152;SDS011;66124;51.146;17.072;2023-05-13T00:08:09;6.70;;;3.40;;
77152;SDS011;66124;51.146;17.072;2023-05-13T00:10:39;4.80;;;3.40;;
77152;SDS011;66124;51.146;17.072;2023-05-13T00:13:08;6.70;;;3.40;;
77152;SDS011;66124;51.146;17.072;2023-05-13T00:15:38;6.00;;;3.20;;
77152;SDS011;66124;51.146;17.072;2023-05-13T00:18:07;4.20;;;3.00;;
77152;SDS011;66124;51.146;17.072;2023-05-13T00:20:36;3.00;;;2.70;;
77152;SDS011;66124;51.146;17.072;2023-05-13T00:33:36;6.60;;;4.20;;
77152;SDS011;66124;51.146;17.072;2023-05-13T00:36:04;5.80;;;3.40;;
77152;SDS011;66124;51.146;17.072;2023-05-13T00:40:59;5.20;;;3.20;;
77152;SDS011;66124;51.146;17.072;2023-05-13T00:43:27;5.10;;;3.10;;
77152;SDS011;66124;51.146;17.072;2023-05-13T00:45:55;5.10;;;3.30;;
77152;SDS011;66124;51.146;17.072;2023-05-13T00:48:23;5.50;;;3.70;;
77152;SDS011;66124;51.146;17.072;2023-05-13T00:50:51;5.90;;;3.30;;
77152;SDS011;66124;51.146;17.072;2023-05-13T01:01:25;6.00;;;3.60;;
77152;SDS011;66124;51.146;17.072;2023-05-13T01:04:03;6.20;;;3.70;;
77152;SDS011;66124;51.146;17.072;2023-05-13T01:06:43;7.20;;;3.60;;
77152;SDS011;66124;51.146;17.072;2023-05-13T01:09:20;4.10;;;3.10;;
77152;SDS011;66124;51.146;17.072;2023-05-13T01:12:01;4.30;;;3.00;;
77152;SDS011;66124;51.146;17.072;2023-05-13T01:14:39;5.10;;;3.20;;
77152;SDS011;66124;51.146;17.072;2023-05-13T01:17:17;5.50;;;3.50;;
77152;SDS011;66124;51.146;17.072;2023-05-13T01:19:53;4.50;;;3.20;;
77152;SDS011;66124;51.146;17.072;2023-05-13T01:22:24;4.90;;;3.10;;
77152;SDS011;66124;51.146;17.072;2023-05-13T01:24:54;5.60;;;3.50;;
77152;SDS011;66124;51.146;17.072;2023-05-13T01:27:23;5.80;;;3.70;;
77152;SDS011;66124;51.146;17.072;2023-05-13T01:29:53;6.00;;;3.40;;
77152;SDS011;66124;51.146;17.072;2023-05-13T01:32:23;7.10;;;4.10;;
77152;SDS011;66124;51.146;17.072;2023-05-13T01:34:53;5.90;;;3.70;;
77152;SDS011;66124;51.146;17.072;2023-05-13T01:37:24;5.80;;;4.60;;
77152;SDS011;66124;51.146;17.072;2023-05-13T01:39:54;5.10;;;3.50;;
77152;SDS011;66124;51.146;17.072;2023-05-13T01:42:24;5.40;;;3.50;;
77152;SDS011;66124;51.146;17.072;2023-05-13T01:47:24;5.10;;;3.30;;
77152;SDS011;66124;51.146;17.072;2023-05-13T01:49:53;4.50;;;3.70;;
77152;SDS011;66124;51.146;17.072;2023-05-13T01:52:23;5.50;;;3.50;;
77152;SDS011;66124;51.146;17.072;2023-05-13T01:54:52;5.00;;;4.10;;
77152;SDS011;66124;51.146;17.072;2023-05-13T01:57:21;6.70;;;4.40;;
77152;SDS011;66124;51.146;17.072;2023-05-13T01:59:51;5.10;;;3.80;;
77152;SDS011;66124;51.146;17.072;2023-05-13T02:02:20;7.80;;;3.70;;
77152;SDS011;66124;51.146;17.072;2023-05-13T02:04:49;6.90;;;4.00;;
77152;SDS011;66124;51.146;17.072;2023-05-13T02:07:19;4.70;;;4.10;;
77152;SDS011;66124;51.146;17.072;2023-05-13T02:09:48;5.70;;;4.10;;
77152;SDS011;66124;51.146;17.072;2023-05-13T02:17:56;6.20;;;4.10;;
77152;SDS011;66124;51.146;17.072;2023-05-13T02:20:23;5.20;;;4.50;;
77152;SDS011;66124;51.146;17.072;2023-05-13T02:22:51;8.80;;;4.30;;
77152;SDS011;66124;51.146;17.072;2023-05-13T02:25:18;5.90;;;4.10;;
77152;SDS011;66124;51.146;17.072;2023-05-13T02:27:46;3.80;;;3.30;;
77152;SDS011;66124;51.146;17.072;2023-05-13T02:30:13;7.30;;;4.00;;
77152;SDS011;66124;51.146;17.072;2023-05-13T02:32:41;7.70;;;4.40;;
77152;SDS011;66124;51.146;17.072;2023-05-13T02:35:08;6.00;;;3.70;;
77152;SDS011;66124;51.146;17.072;2023-05-13T02:45:47;4.60;;;3.60;;
77152;SDS011;66124;51.146;17.072;2023-05-13T02:48:16;6.40;;;3.60;;
77152;SDS011;66124;51.146;17.072;2023-05-13T02:50:46;5.60;;;3.20;;
77152;SDS011;66124;51.146;17.072;2023-05-13T02:53:16;5.40;;;3.60;;
77152;SDS011;66124;51.146;17.072;2023-05-13T02:55:45;4.60;;;3.10;;
77152;SDS011;66124;51.146;17.072;2023-05-13T02:58:16;5.90;;;3.60;;
77152;SDS011;66124;51.146;17.072;2023-05-13T03:00:45;5.40;;;3.80;;
77152;SDS011;66124;51.146;17.072;2023-05-13T03:03:14;7.00;;;3.60;;
77152;SDS011;66124;51.146;17.072;2023-05-13T03:05:44;5.00;;;3.30;;
77152;SDS011;66124;51.146;17.072;2023-05-13T03:08:13;5.30;;;3.60;;
77152;SDS011;66124;51.146;17.072;2023-05-13T03:10:42;5.60;;;3.40;;
77152;SDS011;66124;51.146;17.072;2023-05-13T03:13:12;6.10;;;4.40;;
77152;SDS011;66124;51.146;17.072;2023-05-13T03:15:41;4.40;;;3.40;;
77152;SDS011;66124;51.146;17.072;2023-05-13T03:18:11;7.50;;;3.90;;
77152;SDS011;66124;51.146;17.072;2023-05-13T03:20:40;7.00;;;4.10;;
77152;SDS011;66124;51.146;17.072;2023-05-13T03:23:10;6.10;;;3.40;;
77152;SDS011;66124;51.146;17.072;2023-05-13T03:25:39;5.40;;;3.70;;
77152;SDS011;66124;51.146;17.072;2023-05-13T03:28:08;8.40;;;3.70;;
77152;SDS011;66124;51.146;17.072;2023-05-13T03:30:38;5.40;;;3.50;;
77152;SDS011;66124;51.146;17.072;2023-05-13T03:33:07;7.50;;;4.30;;
77152;SDS011;66124;51.146;17.072;2023-05-13T03:35:37;4.40;;;3.00;;
77152;SDS011;66124;51.146;17.072;2023-05-13T03:38:06;6.70;;;3.70;;
77152;SDS011;66124;51.146;17.072;2023-05-13T03:40:35;7.30;;;4.10;;
77152;SDS011;66124;51.146;17.072;2023-05-13T03:43:05;4.90;;;3.70;;
77152;SDS011;66124;51.146;17.072;2023-05-13T03:45:34;4.80;;;3.40;;
77152;SDS011;66124;51.146;17.072;2023-05-13T03:48:04;6.80;;;3.30;;
77152;SDS011;66124;51.146;17.072;2023-05-13T03:50:34;7.00;;;3.80;;
77152;SDS011;66124;51.146;17.072;2023-05-13T03:53:04;5.10;;;3.70;;
77152;SDS011;66124;51.146;17.072;2023-05-13T04:05:19;7.00;;;3.90;;
77152;SDS011;66124;51.146;17.072;2023-05-13T04:07:48;5.70;;;3.70;;
77152;SDS011;66124;51.146;17.072;2023-05-13T04:10:18;4.40;;;3.10;;
77152;SDS011;66124;51.146;17.072;2023-05-13T04:12:47;5.90;;;3.70;;
77152;SDS011;66124;51.146;17.072;2023-05-13T04:15:17;5.20;;;3.50;;
77152;SDS011;66124;51.146;17.072;2023-05-13T04:17:47;6.20;;;3.80;;
77152;SDS011;66124;51.146;17.072;2023-05-13T04:20:17;4.80;;;3.60;;
77152;SDS011;66124;51.146;17.072;2023-05-13T04:22:46;6.10;;;3.70;;
77152;SDS011;66124;51.146;17.072;2023-05-13T04:25:16;6.20;;;3.50;;
77152;SDS011;66124;51.146;17.072;2023-05-13T04:27:46;7.90;;;4.20;;
77152;SDS011;66124;51.146;17.072;2023-05-13T04:30:15;6.10;;;3.90;;
77152;SDS011;66124;51.146;17.072;2023-05-13T04:32:45;5.00;;;3.50;;
77152;SDS011;66124;51.146;17.072;2023-05-13T04:35:14;6.10;;;3.60;;
77152;SDS011;66124;51.146;17.072;2023-05-13T04:37:43;5.90;;;3.70;;
77152;SDS011;66124;51.146;17.072;2023-05-13T04:40:13;5.80;;;3.80;;
77152;SDS011;66124;51.146;17.072;2023-05-13T04:42:43;7.60;;;3.60;;
77152;SDS011;66124;51.146;17.072;2023-05-13T04:45:12;5.20;;;3.50;;
77152;SDS011;66124;51.146;17.072;2023-05-13T04:47:42;4.50;;;3.20;;
77152;SDS011;66124;51.146;17.072;2023-05-13T04:50:11;5.80;;;3.60;;
77152;SDS011;66124;51.146;17.072;2023-05-13T04:52:41;5.10;;;3.40;;
77152;SDS011;66124;51.146;17.072;2023-05-13T04:55:10;5.10;;;3.70;;
77152;SDS011;66124;51.146;17.072;2023-05-13T04:57:40;5.30;;;3.70;;
77152;SDS011;66124;51.146;17.072;2023-05-13T05:00:10;8.40;;;3.70;;
77152;SDS011;66124;51.146;17.072;2023-05-13T05:02:41;6.40;;;3.90;;
77152;SDS011;66124;51.146;17.072;2023-05-13T05:05:11;4.90;;;3.70;;
77152;SDS011;66124;51.146;17.072;2023-05-13T05:07:40;7.30;;;3.40;;
77152;SDS011;66124;51.146;17.072;2023-05-13T05:10:09;6.60;;;4.00;;
77152;SDS011;66124;51.146;17.072;2023-05-13T05:12:39;5.00;;;3.60;;
77152;SDS011;66124;51.146;17.072;2023-05-13T05:15:08;5.10;;;3.90;;
77152;SDS011;66124;51.146;17.072;2023-05-13T05:22:49;5.50;;;3.40;;
77152;SDS011;66124;51.146;17.072;2023-05-13T05:25:18;6.70;;;3.60;;
77152;SDS011;66124;51.146;17.072;2023-05-13T05:27:47;5.30;;;3.80;;
77152;SDS011;66124;51.146;17.072;2023-05-13T05:30:17;7.20;;;4.50;;
77152;SDS011;66124;51.146;17.072;2023-05-13T05:32:46;5.50;;;3.80;;
77152;SDS011;66124;51.146;17.072;2023-05-13T05:35:17;5.90;;;3.40;;
77152;SDS011;66124;51.146;17.072;2023-05-13T05:37:47;4.40;;;3.00;;
77152;SDS011;66124;51.146;17.072;2023-05-13T05:40:16;4.50;;;3.50;;
77152;SDS011;66124;51.146;17.072;2023-05-13T05:42:46;5.40;;;3.90;;
77152;SDS011;66124;51.146;17.072;2023-05-13T05:45:15;5.70;;;3.60;;
77152;SDS011;66124;51.146;17.072;2023-05-13T05:47:45;5.00;;;3.50;;
77152;SDS011;66124;51.146;17.072;2023-05-13T05:50:14;4.60;;;3.40;;
77152;SDS011;66124;51.146;17.072;2023-05-13T05:52:44;7.70;;;3.50;;
77152;SDS011;66124;51.146;17.072;2023-05-13T05:55:13;7.80;;;4.80;;
77152;SDS011;66124;51.146;17.072;2023-05-13T05:57:42;4.30;;;3.10;;
77152;SDS011;66124;51.146;17.072;2023-05-13T06:00:13;5.70;;;3.40;;
77152;SDS011;66124;51.146;17.072;2023-05-13T06:02:43;3.50;;;2.80;;
77152;SDS011;66124;51.146;17.072;2023-05-13T06:05:13;5.00;;;3.40;;
77152;SDS011;66124;51.146;17.072;2023-05-13T06:07:42;6.00;;;3.60;;
77152;SDS011;66124;51.146;17.072;2023-05-13T06:10:11;4.80;;;3.30;;
77152;SDS011;66124;51.146;17.072;2023-05-13T06:12:41;5.10;;;3.40;;
77152;SDS011;66124;51.146;17.072;2023-05-13T06:15:11;5.20;;;3.50;;
77152;SDS011;66124;51.146;17.072;2023-05-13T06:17:40;4.30;;;3.90;;
77152;SDS011;66124;51.146;17.072;2023-05-13T06:20:10;4.60;;;3.60;;
77152;SDS011;66124;51.146;17.072;2023-05-13T06:22:40;5.20;;;3.60;;
77152;SDS011;66124;51.146;17.072;2023-05-13T06:25:10;4.80;;;3.60;;
77152;SDS011;66124;51.146;17.072;2023-05-13T06:27:39;3.80;;;3.00;;
77152;SDS011;66124;51.146;17.072;2023-05-13T06:30:09;4.00;;;3.10;;
77152;SDS011;66124;51.146;17.072;2023-05-13T06:32:39;3.10;;;2.40;;
77152;SDS011;66124;51.146;17.072;2023-05-13T06:41:19;6.70;;;3.70;;
77152;SDS011;66124;51.146;17.072;2023-05-13T06:43:48;6.20;;;3.60;;
77152;SDS011;66124;51.146;17.072;2023-05-13T06:46:18;5.40;;;3.80;;
77152;SDS011;66124;51.146;17.072;2023-05-13T06:48:47;5.50;;;3.70;;
77152;SDS011;66124;51.146;17.072;2023-05-13T06:51:17;5.80;;;3.60;;
77152;SDS011;66124;51.146;17.072;2023-05-13T06:53:47;4.70;;;3.40;;
77152;SDS011;66124;51.146;17.072;2023-05-13T06:56:17;5.80;;;3.60;;
77152;SDS011;66124;51.146;17.072;2023-05-13T06:58:46;6.40;;;3.60;;
77152;SDS011;66124;51.146;17.072;2023-05-13T07:01:16;5.30;;;3.90;;
77152;SDS011;66124;51.146;17.072;2023-05-13T07:03:45;7.70;;;3.80;;
77152;SDS011;66124;51.146;17.072;2023-05-13T07:06:15;6.80;;;3.60;;
77152;SDS011;66124;51.146;17.072;2023-05-13T07:08:44;6.70;;;4.10;;
77152;SDS011;66124;51.146;17.072;2023-05-13T07:11:14;5.30;;;3.20;;
77152;SDS011;66124;51.146;17.072;2023-05-13T07:13:43;6.90;;;3.50;;
77152;SDS011;66124;51.146;17.072;2023-05-13T07:16:13;7.10;;;3.80;;
77152;SDS011;66124;51.146;17.072;2023-05-13T07:18:44;5.40;;;3.30;;
77152;SDS011;66124;51.146;17.072;2023-05-13T07:21:13;5.00;;;3.90;;
77152;SDS011;66124;51.146;17.072;2023-05-13T07:23:43;6.40;;;3.90;;
77152;SDS011;66124;51.146;17.072;2023-05-13T07:26:12;5.50;;;3.90;;
77152;SDS011;66124;51.146;17.072;2023-05-13T07:28:42;6.30;;;4.00;;
77152;SDS011;66124;51.146;17.072;2023-05-13T07:31:11;5.00;;;3.90;;
77152;SDS011;66124;51.146;17.072;2023-05-13T07:33:41;5.50;;;3.90;;
77152;SDS011;66124;51.146;17.072;2023-05-13T07:36:10;6.20;;;4.00;;
77152;SDS011;66124;51.146;17.072;2023-05-13T07:38:40;7.70;;;4.10;;
77152;SDS011;66124;51.146;17.072;2023-05-13T07:41:09;7.50;;;3.90;;
77152;SDS011;66124;51.146;17.072;2023-05-13T07:43:38;5.70;;;4.00;;
77152;SDS011;66124;51.146;17.072;2023-05-13T07:46:08;5.80;;;4.50;;
77152;SDS011;66124;51.146;17.072;2023-05-13T07:48:37;5.90;;;4.20;;
77152;SDS011;66124;51.146;17.072;2023-05-13T08:01:30;8.10;;;4.10;;
77152;SDS011;66124;51.146;17.072;2023-05-13T08:04:00;5.90;;;4.70;;
77152;SDS011;66124;51.146;17.072;2023-05-13T08:06:29;6.20;;;3.50;;
77152;SDS011;66124;51.146;17.072;2023-05-13T08:08:59;6.70;;;4.60;;
77152;SDS011;66124;51.146;17.072;2023-05-13T08:11:28;7.30;;;3.70;;
77152;SDS011;66124;51.146;17.072;2023-05-13T08:13:59;5.50;;;4.10;;
77152;SDS011;66124;51.146;17.072;2023-05-13T08:16:29;6.70;;;4.00;;
77152;SDS011;66124;51.146;17.072;2023-05-13T08:18:58;5.50;;;3.70;;
77152;SDS011;66124;51.146;17.072;2023-05-13T08:21:28;4.90;;;3.90;;
77152;SDS011;66124;51.146;17.072;2023-05-13T08:23:57;7.10;;;3.80;;
77152;SDS011;66124;51.146;17.072;2023-05-13T08:26:26;6.40;;;3.90;;
77152;SDS011;66124;51.146;17.072;2023-05-13T08:28:56;5.90;;;3.80;;
77152;SDS011;66124;51.146;17.072;2023-05-13T08:31:25;7.20;;;4.10;;
77152;SDS011;66124;51.146;17.072;2023-05-13T08:33:55;5.90;;;3.70;;
77152;SDS011;66124;51.146;17.072;2023-05-13T08:36:24;5.20;;;3.90;;
77152;SDS011;66124;51.146;17.072;2023-05-13T08:38:54;6.60;;;4.00;;
77152;SDS011;66124;51.146;17.072;2023-05-13T08:41:23;5.00;;;3.80;;
77152;SDS011;66124;51.146;17.072;2023-05-13T08:43:52;5.70;;;4.20;;
77152;SDS011;66124;51.146;17.072;2023-05-13T08:46:24;5.00;;;3.70;;
77152;SDS011;66124;51.146;17.072;2023-05-13T08:48:57;4.80;;;3.50;;
77152;SDS011;66124;51.146;17.072;2023-05-13T08:51:27;5.10;;;4.10;;
77152;SDS011;66124;51.146;17.072;2023-05-13T08:53:57;6.40;;;4.40;;
77152;SDS011;66124;51.146;17.072;2023-05-13T08:56:27;6.30;;;4.40;;
77152;SDS011;66124;51.146;17.072;2023-05-13T08:58:57;5.10;;;4.00;;
77152;SDS011;66124;51.146;17.072;2023-05-13T09:01:26;5.30;;;3.40;;
77152;SDS011;66124;51.146;17.072;2023-05-13T09:03:57;6.40;;;4.00;;
77152;SDS011;66124;51.146;17.072;2023-05-13T09:08:56;5.30;;;3.80;;
77152;SDS011;66124;51.146;17.072;2023-05-13T09:21:24;4.10;;;3.10;;
77152;SDS011;66124;51.146;17.072;2023-05-13T09:23:56;5.40;;;3.10;;
77152;SDS011;66124;51.146;17.072;2023-05-13T09:26:33;5.20;;;3.90;;
77152;SDS011;66124;51.146;17.072;2023-05-13T09:29:16;5.70;;;3.50;;
77152;SDS011;66124;51.146;17.072;2023-05-13T09:31:48;4.50;;;3.30;;
77152;SDS011;66124;51.146;17.072;2023-05-13T09:34:24;4.20;;;3.20;;
77152;SDS011;66124;51.146;17.072;2023-05-13T09:36:58;5.20;;;3.40;;
77152;SDS011;66124;51.146;17.072;2023-05-13T09:39:30;4.60;;;3.20;;
77152;SDS011;66124;51.146;17.072;2023-05-13T09:42:01;4.00;;;2.90;;
77152;SDS011;66124;51.146;17.072;2023-05-13T09:44:30;4.40;;;2.70;;
77152;SDS011;66124;51.146;17.072;2023-05-13T09:47:00;4.40;;;2.90;;
77152;SDS011;66124;51.146;17.072;2023-05-13T09:49:30;4.70;;;3.20;;
77152;SDS011;66124;51.146;17.072;2023-05-13T09:51:59;3.90;;;2.90;;
77152;SDS011;66124;51.146;17.072;2023-05-13T09:54:34;3.20;;;2.90;;
77152;SDS011;66124;51.146;17.072;2023-05-13T09:57:04;3.30;;;3.00;;
77152;SDS011;66124;51.146;17.072;2023-05-13T09:59:34;5.20;;;3.30;;
77152;SDS011;66124;51.146;17.072;2023-05-13T10:02:04;3.40;;;3.00;;
77152;SDS011;66124;51.146;17.072;2023-05-13T10:04:36;4.40;;;3.00;;
77152;SDS011;66124;51.146;17.072;2023-05-13T10:07:06;4.60;;;2.90;;
77152;SDS011;66124;51.146;17.072;2023-05-13T10:09:37;3.20;;;2.70;;
77152;SDS011;66124;51.146;17.072;2023-05-13T10:12:09;5.10;;;2.80;;
77152;SDS011;66124;51.146;17.072;2023-05-13T10:14:41;4.40;;;2.50;;
77152;SDS011;66124;51.146;17.072;2023-05-13T10:17:11;3.20;;;2.90;;
77152;SDS011;66124;51.146;17.072;2023-05-13T10:19:42;3.60;;;2.80;;
77152;SDS011;66124;51.146;17.072;2023-05-13T10:22:12;5.30;;;3.30;;
77152;SDS011;66124;51.146;17.072;2023-05-13T10:27:12;4.40;;;2.80;;
77152;SDS011;66124;51.146;17.072;2023-05-13T10:29:43;3.90;;;2.90;;
77152;SDS011;66124;51.146;17.072;2023-05-13T10:39:16;3.20;;;2.30;;
77152;SDS011;66124;51.146;17.072;2023-05-13T10:42:07;3.10;;;2.70;;
77152;SDS011;66124;51.146;17.072;2023-05-13T10:45:03;3.30;;;2.70;;
77152;SDS011;66124;51.146;17.072;2023-05-13T10:47:34;7.60;;;2.70;;
77152;SDS011;66124;51.146;17.072;2023-05-13T10:50:07;3.00;;;1.90;;
77152;SDS011;66124;51.146;17.072;2023-05-13T10:52:53;4.10;;;2.40;;
77152;SDS011;66124;51.146;17.072;2023-05-13T10:55:24;3.20;;;2.40;;
77152;SDS011;66124;51.146;17.072;2023-05-13T10:58:03;2.90;;;2.50;;
77152;SDS011;66124;51.146;17.072;2023-05-13T11:00:36;3.00;;;2.40;;
77152;SDS011;66124;51.146;17.072;2023-05-13T11:03:10;3.70;;;2.30;;
77152;SDS011;66124;51.146;17.072;2023-05-13T11:05:42;2.90;;;2.30;;
77152;SDS011;66124;51.146;17.072;2023-05-13T11:08:13;3.20;;;2.60;;
77152;SDS011;66124;51.146;17.072;2023-05-13T11:11:17;3.20;;;2.50;;
77152;SDS011;66124;51.146;17.072;2023-05-13T11:13:50;3.80;;;2.90;;
77152;SDS011;66124;51.146;17.072;2023-05-13T11:16:20;3.30;;;2.20;;
77152;SDS011;66124;51.146;17.072;2023-05-13T11:18:51;5.10;;;2.50;;
77152;SDS011;66124;51.146;17.072;2023-05-13T11:21:29;4.60;;;2.70;;
77152;SDS011;66124;51.146;17.072;2023-05-13T11:24:01;2.90;;;2.60;;
77152;SDS011;66124;51.146;17.072;2023-05-13T11:26:44;3.90;;;2.80;;
77152;SDS011;66124;51.146;17.072;2023-05-13T11:29:15;3.90;;;3.10;;
77152;SDS011;66124;51.146;17.072;2023-05-13T11:31:55;2.70;;;2.20;;
77152;SDS011;66124;51.146;17.072;2023-05-13T11:34:26;3.60;;;2.70;;
77152;SDS011;66124;51.146;17.072;2023-05-13T11:36:56;5.40;;;2.40;;
77152;SDS011;66124;51.146;17.072;2023-05-13T11:39:33;2.90;;;2.30;;
77152;SDS011;66124;51.146;17.072;2023-05-13T11:42:07;3.90;;;2.00;;
77152;SDS011;66124;51.146;17.072;2023-05-13T11:44:43;2.30;;;1.80;;
77152;SDS011;66124;51.146;17.072;2023-05-13T11:47:13;0.80;;;0.80;;
77152;SDS011;66124;51.146;17.072;2023-05-13T11:52:45;4.40;;;2.10;;
77152;SDS011;66124;51.146;17.072;2023-05-13T11:55:25;3.90;;;2.10;;
77152;SDS011;66124;51.146;17.072;2023-05-13T11:57:56;2.40;;;1.60;;
77152;SDS011;66124;51.146;17.072;2023-05-13T12:00:27;3.20;;;1.70;;
77152;SDS011;66124;51.146;17.072;2023-05-13T12:02:58;1.90;;;1.40;;
77152;SDS011;66124;51.146;17.072;2023-05-13T12:05:35;3.20;;;1.40;;
77152;SDS011;66124;51.146;17.072;2023-05-13T12:08:05;2.40;;;1.50;;
77152;SDS011;66124;51.146;17.072;2023-05-13T12:10:35;3.70;;;1.70;;
77152;SDS011;66124;51.146;17.072;2023-05-13T12:13:11;3.30;;;1.70;;
77152;SDS011;66124;51.146;17.072;2023-05-13T12:15:40;2.90;;;1.90;;
77152;SDS011;66124;51.146;17.072;2023-05-13T12:18:11;2.50;;;1.80;;
77152;SDS011;66124;51.146;17.072;2023-05-13T12:20:40;4.70;;;1.70;;
77152;SDS011;66124;51.146;17.072;2023-05-13T12:23:10;5.30;;;1.40;;
77152;SDS011;66124;51.146;17.072;2023-05-13T12:25:40;2.40;;;1.80;;
77152;SDS011;66124;51.146;17.072;2023-05-13T12:28:12;3.00;;;1.90;;
77152;SDS011;66124;51.146;17.072;2023-05-13T12:30:44;3.10;;;1.50;;
77152;SDS011;66124;51.146;17.072;2023-05-13T12:33:18;3.70;;;1.70;;
77152;SDS011;66124;51.146;17.072;2023-05-13T12:35:50;3.30;;;1.70;;
77152;SDS011;66124;51.146;17.072;2023-05-13T12:38:21;2.80;;;1.70;;
77152;SDS011;66124;51.146;17.072;2023-05-13T12:40:52;3.20;;;1.60;;
77152;SDS011;66124;51.146;17.072;2023-05-13T12:43:22;3.00;;;1.70;;
77152;SDS011;66124;51.146;17.072;2023-05-13T12:45:52;3.00;;;1.90;;
77152;SDS011;66124;51.146;17.072;2023-05-13T12:48:23;3.10;;;1.60;;
77152;SDS011;66124;51.146;17.072;2023-05-13T12:53:20;3.00;;;1.60;;
77152;SDS011;66124;51.146;17.072;2023-05-13T12:55:50;2.30;;;1.40;;
77152;SDS011;66124;51.146;17.072;2023-05-13T12:58:19;2.20;;;1.80;;
77152;SDS011;66124;51.146;17.072;2023-05-13T13:00:49;3.30;;;1.80;;
77152;SDS011;66124;51.146;17.072;2023-05-13T13:03:18;4.60;;;1.90;;
77152;SDS011;66124;51.146;17.072;2023-05-13T13:08:32;2.40;;;1.90;;
77152;SDS011;66124;51.146;17.072;2023-05-13T13:11:01;2.40;;;1.90;;
77152;SDS011;66124;51.146;17.072;2023-05-13T13:13:31;2.20;;;1.80;;
77152;SDS011;66124;51.146;17.072;2023-05-13T13:16:00;4.30;;;2.00;;
77152;SDS011;66124;51.146;17.072;2023-05-13T13:18:30;3.70;;;2.20;;
77152;SDS011;66124;51.146;17.072;2023-05-13T13:21:00;2.80;;;1.90;;
77152;SDS011;66124;51.146;17.072;2023-05-13T13:23:30;4.20;;;2.20;;
77152;SDS011;66124;51.146;17.072;2023-05-13T13:25:59;3.60;;;1.80;;
77152;SDS011;66124;51.146;17.072;2023-05-13T13:28:29;3.30;;;2.00;;
77152;SDS011;66124;51.146;17.072;2023-05-13T13:30:59;3.40;;;2.10;;
77152;SDS011;66124;51.146;17.072;2023-05-13T13:33:28;2.60;;;2.30;;
77152;SDS011;66124;51.146;17.072;2023-05-13T13:35:58;5.40;;;2.60;;
77152;SDS011;66124;51.146;17.072;2023-05-13T13:38:27;3.00;;;2.60;;
77152;SDS011;66124;51.146;17.072;2023-05-13T13:40:56;4.20;;;2.90;;
77152;SDS011;66124;51.146;17.072;2023-05-13T13:43:26;4.40;;;2.70;;
77152;SDS011;66124;51.146;17.072;2023-05-13T13:45:55;4.20;;;3.00;;
77152;SDS011;66124;51.146;17.072;2023-05-13T13:48:25;3.20;;;2.40;;
77152;SDS011;66124;51.146;17.072;2023-05-13T13:50:54;5.00;;;2.70;;
77152;SDS011;66124;51.146;17.072;2023-05-13T13:53:24;4.00;;;2.90;;
77152;SDS011;66124;51.146;17.072;2023-05-13T13:55:53;4.90;;;2.70;;
77152;SDS011;66124;51.146;17.072;2023-05-13T13:58:23;3.20;;;2.60;;
77152;SDS011;66124;51.146;17.072;2023-05-13T14:00:52;4.70;;;2.80;;
77152;SDS011;66124;51.146;17.072;2023-05-13T14:03:22;3.10;;;2.40;;
77152;SDS011;66124;51.146;17.072;2023-05-13T14:05:51;3.50;;;2.10;;
77152;SDS011;66124;51.146;17.072;2023-05-13T14:08:21;4.60;;;3.00;;
77152;SDS011;66124;51.146;17.072;2023-05-13T14:10:50;3.20;;;2.00;;
77152;SDS011;66124;51.146;17.072;2023-05-13T14:13:19;2.60;;;2.10;;
77152;SDS011;66124;51.146;17.072;2023-05-13T14:15:49;2.70;;;1.70;;
77152;SDS011;66124;51.146;17.072;2023-05-13T14:18:18;3.20;;;2.60;;
77152;SDS011;66124;51.146;17.072;2023-05-13T14:31:01;4.00;;;2.40;;
77152;SDS011;66124;51.146;17.072;2023-05-13T14:33:30;2.60;;;2.40;;
77152;SDS011;66124;51.146;17.072;2023-05-13T14:36:00;2.10;;;1.90;;
77152;SDS011;66124;51.146;17.072;2023-05-13T14:38:30;2.80;;;2.20;;
77152;SDS011;66124;51.146;17.072;2023-05-13T14:40:59;2.60;;;1.70;;
77152;SDS011;66124;51.146;17.072;2023-05-13T14:43:29;3.30;;;1.90;;
77152;SDS011;66124;51.146;17.072;2023-05-13T14:45:58;3.40;;;2.10;;
77152;SDS011;66124;51.146;17.072;2023-05-13T14:48:28;4.00;;;2.10;;
77152;SDS011;66124;51.146;17.072;2023-05-13T14:50:57;2.60;;;2.10;;
77152;SDS011;66124;51.146;17.072;2023-05-13T14:53:27;3.00;;;1.90;;
77152;SDS011;66124;51.146;17.072;2023-05-13T14:55:56;3.40;;;2.20;;
77152;SDS011;66124;51.146;17.072;2023-05-13T14:58:26;2.80;;;1.60;;
77152;SDS011;66124;51.146;17.072;2023-05-13T15:00:55;2.60;;;2.40;;
77152;SDS011;66124;51.146;17.072;2023-05-13T15:03:24;2.50;;;2.10;;
77152;SDS011;66124;51.146;17.072;2023-05-13T15:05:54;2.50;;;1.90;;
77152;SDS011;66124;51.146;17.072;2023-05-13T15:08:24;3.80;;;2.10;;
77152;SDS011;66124;51.146;17.072;2023-05-13T15:10:54;3.90;;;2.00;;
77152;SDS011;66124;51.146;17.072;2023-05-13T15:13:25;2.90;;;2.10;;
77152;SDS011;66124;51.146;17.072;2023-05-13T15:15:55;2.60;;;1.70;;
77152;SDS011;66124;51.146;17.072;2023-05-13T15:18:24;2.20;;;2.00;;
77152;SDS011;66124;51.146;17.072;2023-05-13T15:20:54;2.80;;;1.70;;
77152;SDS011;66124;51.146;17.072;2023-05-13T15:23:23;4.00;;;1.90;;
77152;SDS011;66124;51.146;17.072;2023-05-13T15:25:53;3.20;;;2.20;;
77152;SDS011;66124;51.146;17.072;2023-05-13T15:28:23;3.90;;;2.10;;
77152;SDS011;66124;51.146;17.072;2023-05-13T15:30:52;3.40;;;2.10;;
77152;SDS011;66124;51.146;17.072;2023-05-13T15:33:22;3.30;;;2.10;;
77152;SDS011;66124;51.146;17.072;2023-05-13T15:35:51;2.40;;;2.20;;
77152;SDS011;66124;51.146;17.072;2023-05-13T15:38:20;3.40;;;2.10;;
77152;SDS011;66124;51.146;17.072;2023-05-13T15:40:50;4.10;;;2.20;;
77152;SDS011;66124;51.146;17.072;2023-05-13T15:50:55;3.90;;;2.30;;
77152;SDS011;66124;51.146;17.072;2023-05-13T15:53:24;3.10;;;1.80;;
77152;SDS011;66124;51.146;17.072;2023-05-13T15:55:54;3.20;;;1.70;;
77152;SDS011;66124;51.146;17.072;2023-05-13T15:58:24;4.00;;;1.90;;
77152;SDS011;66124;51.146;17.072;2023-05-13T16:00:53;4.50;;;2.00;;
77152;SDS011;66124;51.146;17.072;2023-05-13T16:03:24;4.10;;;1.80;;
77152;SDS011;66124;51.146;17.072;2023-05-13T16:05:53;4.50;;;2.20;;
77152;SDS011;66124;51.146;17.072;2023-05-13T16:08:23;3.60;;;2.30;;
77152;SDS011;66124;51.146;17.072;2023-05-13T16:10:52;3.30;;;2.30;;
77152;SDS011;66124;51.146;17.072;2023-05-13T16:13:22;3.70;;;2.40;;
77152;SDS011;66124;51.146;17.072;2023-05-13T16:15:52;2.60;;;2.20;;
77152;SDS011;66124;51.146;17.072;2023-05-13T16:18:22;6.60;;;2.30;;
77152;SDS011;66124;51.146;17.072;2023-05-13T16:20:51;5.90;;;2.80;;
77152;SDS011;66124;51.146;17.072;2023-05-13T16:23:21;3.50;;;2.00;;
77152;SDS011;66124;51.146;17.072;2023-05-13T16:25:50;3.00;;;1.90;;
77152;SDS011;66124;51.146;17.072;2023-05-13T16:28:20;3.80;;;2.10;;
77152;SDS011;66124;51.146;17.072;2023-05-13T16:30:49;4.00;;;2.00;;
77152;SDS011;66124;51.146;17.072;2023-05-13T16:33:19;4.60;;;2.10;;
77152;SDS011;66124;51.146;17.072;2023-05-13T16:35:48;3.80;;;2.10;;
77152;SDS011;66124;51.146;17.072;2023-05-13T16:38:18;6.40;;;2.70;;
77152;SDS011;66124;51.146;17.072;2023-05-13T16:40:47;3.20;;;2.10;;
77152;SDS011;66124;51.146;17.072;2023-05-13T16:43:17;5.00;;;2.40;;
77152;SDS011;66124;51.146;17.072;2023-05-13T16:45:46;2.90;;;2.20;;
77152;SDS011;66124;51.146;17.072;2023-05-13T16:48:16;6.50;;;2.10;;